Time;durP1;ratioP1;P1;durP2;ratioP2;P2;SDS_P1;SDS_P2;PMS_P1;PMS_P2;Temp;Humidity;BMP_temperature;BMP_pressure;BME280_temperature;BME280_humidity;BME280_pressure;Samples;Min_cycle;Max_cycle;Signal;HPM_P1;HPM_P2
2021/09/21 00:02:00;;;;;;;9.63;7.07;;;13.90;99.90;;;;;;4900709;29;20048;-78
2021/09/21 00:04:27;;;;;;;9.88;6.85;;;14.00;99.90;;;;;;4900267;29;20072;-79
2021/09/21 00:06:55;;;;;;;10.35;7.38;;;13.90;99.90;;;;;;4900975;29;20057;-79
2021/09/21 00:09:22;;;;;;;10.93;7.22;;;13.80;99.90;;;;;;4895478;29;20049;-78
2021/09/21 00:11:52;;;;;;;11.23;7.20;;;13.70;99.90;;;;;;4900045;29;20163;-80
2021/09/21 00:14:20;;;;;;;10.30;6.90;;;13.70;99.90;;;;;;4900666;29;20052;-79
2021/09/21 00:16:47;;;;;;;12.13;8.20;;;13.70;99.90;;;;;;4900647;29;20156;-78
2021/09/21 00:19:14;;;;;;;11.18;8.00;;;13.60;99.90;;;;;;4899915;29;20135;-79
2021/09/21 00:21:41;;;;;;;10.75;7.53;;;13.50;99.90;;;;;;4900612;29;20049;-78
2021/09/21 00:24:08;;;;;;;10.38;7.10;;;13.50;99.90;;;;;;4900161;29;20143;-78
2021/09/21 00:26:36;;;;;;;11.10;7.45;;;13.50;99.90;;;;;;4900225;29;20507;-78
2021/09/21 00:29:05;;;;;;;10.20;7.45;;;13.40;99.90;;;;;;4899930;29;20554;-77
2021/09/21 00:31:37;;;;;;;10.75;7.70;;;13.50;99.90;;;;;;4900274;29;20493;-79
2021/09/21 00:34:08;;;;;;;12.48;7.72;;;13.50;99.90;;;;;;4900635;29;20076;-78
2021/09/21 00:36:41;;;;;;;11.35;8.32;;;13.50;99.90;;;;;;4900312;29;20073;-76
2021/09/21 00:39:12;;;;;;;11.48;8.48;;;13.50;99.90;;;;;;4900134;29;20064;-79
2021/09/21 00:41:41;;;;;;;12.18;8.45;;;13.50;99.90;;;;;;4900465;29;20144;-79
2021/09/21 00:44:10;;;;;;;12.38;9.05;;;13.50;99.90;;;;;;4900152;29;20131;-79
2021/09/21 00:46:37;;;;;;;12.30;8.45;;;13.40;99.90;;;;;;4894581;29;20483;-78
2021/09/21 00:49:05;;;;;;;10.60;7.32;;;13.40;99.90;;;;;;4888896;29;20396;-79
2021/09/21 00:51:32;;;;;;;11.10;7.85;;;13.40;99.90;;;;;;4891428;29;20136;-79
2021/09/21 00:54:00;;;;;;;11.85;8.00;;;13.40;99.90;;;;;;4899956;29;20144;-79
2021/09/21 00:56:27;;;;;;;11.32;7.95;;;13.40;99.90;;;;;;4922172;29;20566;-79
2021/09/21 00:58:54;;;;;;;12.45;7.85;;;13.40;99.90;;;;;;4899863;29;20143;-79
2021/09/21 01:01:23;;;;;;;11.38;7.93;;;13.30;99.90;;;;;;4898076;29;20051;-79
2021/09/21 01:03:50;;;;;;;11.40;8.48;;;13.40;99.90;;;;;;4899689;29;20048;-79
2021/09/21 01:06:17;;;;;;;11.70;7.60;;;13.40;99.90;;;;;;4899120;29;20144;-78
2021/09/21 01:08:44;;;;;;;11.70;7.68;;;13.30;99.90;;;;;;4900107;29;20054;-79
2021/09/21 01:11:13;;;;;;;9.70;7.40;;;13.40;99.90;;;;;;4899524;29;20136;-79
2021/09/21 01:13:40;;;;;;;10.68;7.82;;;13.40;99.90;;;;;;4899965;29;20135;-79
2021/09/21 01:16:08;;;;;;;11.05;7.80;;;13.50;99.90;;;;;;4899086;29;20159;-79
2021/09/21 01:18:37;;;;;;;11.27;8.05;;;13.50;99.90;;;;;;4899903;29;20483;-78
2021/09/21 01:21:06;;;;;;;11.18;7.75;;;13.50;99.90;;;;;;4899646;29;20053;-80
2021/09/21 01:23:46;;;;;;;10.07;7.35;;;13.50;99.90;;;;;;4899602;29;20135;-79
2021/09/21 01:26:13;;;;;;;12.65;8.43;;;13.60;99.90;;;;;;4899413;29;20131;-80
2021/09/21 01:28:41;;;;;;;11.02;8.10;;;13.60;99.90;;;;;;4899425;29;20139;-78
2021/09/21 01:31:08;;;;;;;11.43;8.00;;;13.60;99.90;;;;;;4898539;29;20084;-78
2021/09/21 01:33:35;;;;;;;11.48;7.72;;;13.60;99.90;;;;;;4899309;29;20128;-79
2021/09/21 01:36:02;;;;;;;10.43;7.53;;;13.60;99.90;;;;;;4899091;29;20138;-79
2021/09/21 01:38:29;;;;;;;9.88;6.82;;;13.50;99.90;;;;;;4891940;29;20055;-79
2021/09/21 01:40:58;;;;;;;9.60;7.03;;;13.60;99.90;;;;;;4899055;29;20092;-78
2021/09/21 01:43:25;;;;;;;9.73;6.90;;;13.60;99.90;;;;;;4898381;29;20051;-78
2021/09/21 01:45:52;;;;;;;11.60;7.80;;;13.70;99.90;;;;;;4898580;29;20127;-80
2021/09/21 01:48:19;;;;;;;12.13;7.80;;;13.70;99.90;;;;;;4899010;29;20443;-77
2021/09/21 01:50:51;;;;;;;10.45;7.35;;;13.70;99.90;;;;;;4899078;29;20144;-78
2021/09/21 01:53:25;;;;;;;11.30;7.30;;;13.70;99.90;;;;;;4898804;29;20088;-80
2021/09/21 01:58:47;;;;;;;10.10;7.07;;;13.80;99.90;;;;;;4892577;29;20063;-78
2021/09/21 02:01:17;;;;;;;11.05;7.45;;;13.80;99.90;;;;;;4898238;29;20048;-79
2021/09/21 02:03:44;;;;;;;10.82;7.75;;;13.80;99.90;;;;;;4898419;29;20087;-79
2021/09/21 02:06:12;;;;;;;10.07;7.45;;;13.80;99.90;;;;;;4898184;29;20084;-79
2021/09/21 02:08:40;;;;;;;10.20;7.00;;;13.70;99.90;;;;;;4898070;29;20574;-79
2021/09/21 02:11:07;;;;;;;9.20;6.97;;;13.70;99.90;;;;;;4898427;29;20100;-79
2021/09/21 02:13:35;;;;;;;10.90;7.10;;;13.70;99.90;;;;;;4898949;29;20120;-79
2021/09/21 02:16:04;;;;;;;11.10;7.60;;;13.80;99.90;;;;;;4897882;29;20108;-79
2021/09/21 02:18:31;;;;;;;11.23;6.93;;;13.70;99.90;;;;;;4891683;29;20088;-79
2021/09/21 02:20:58;;;;;;;9.95;7.18;;;13.80;99.90;;;;;;4898768;29;20079;-78
2021/09/21 02:23:26;;;;;;;10.25;7.38;;;13.70;99.90;;;;;;4898519;29;20131;-79
2021/09/21 02:25:53;;;;;;;10.65;7.25;;;13.80;99.90;;;;;;4898688;29;20075;-78
2021/09/21 02:28:21;;;;;;;9.45;6.88;;;13.80;99.90;;;;;;4898277;29;20136;-78
2021/09/21 02:30:48;;;;;;;11.65;7.40;;;13.80;99.90;;;;;;4898075;29;20135;-78
2021/09/21 02:33:16;;;;;;;9.90;7.10;;;13.80;99.90;;;;;;4897652;29;20136;-79
2021/09/21 02:35:43;;;;;;;9.27;6.80;;;13.90;99.90;;;;;;4897770;29;20451;-78
2021/09/21 02:38:10;;;;;;;11.60;7.20;;;13.90;99.90;;;;;;4897484;29;20120;-80
2021/09/21 02:40:38;;;;;;;12.43;7.40;;;13.90;99.90;;;;;;4897850;29;20135;-78
2021/09/21 02:43:05;;;;;;;10.98;7.10;;;13.90;99.90;;;;;;4897502;29;20076;-79
2021/09/21 02:45:32;;;;;;;9.85;6.70;;;13.90;99.90;;;;;;4897557;29;20506;-78
2021/09/21 02:48:00;;;;;;;10.18;6.90;;;13.90;99.90;;;;;;4897517;29;20139;-78
2021/09/21 02:50:29;;;;;;;10.90;6.72;;;13.90;99.90;;;;;;4897277;29;20052;-79
2021/09/21 02:52:56;;;;;;;11.40;6.70;;;14.00;99.90;;;;;;4897651;29;20533;-79
2021/09/21 02:55:23;;;;;;;10.18;6.95;;;13.90;99.90;;;;;;4897452;29;20072;-78
2021/09/21 02:57:50;;;;;;;10.98;7.20;;;14.00;99.90;;;;;;4919928;29;20053;-79
2021/09/21 03:00:23;;;;;;;8.48;5.95;;;14.00;99.90;;;;;;4897282;29;20076;-78
2021/09/21 03:02:50;;;;;;;8.48;6.25;;;14.00;99.90;;;;;;4895353;29;20135;-79
2021/09/21 03:05:21;;;;;;;11.73;7.78;;;14.00;99.90;;;;;;4894990;29;20048;-79
2021/09/21 03:07:54;;;;;;;9.63;6.90;;;14.00;99.90;;;;;;4894744;29;20048;-79
2021/09/21 03:10:40;;;;;;;10.27;7.07;;;14.00;99.90;;;;;;4893211;29;20136;-80
2021/09/21 03:18:38;;;;;;;10.73;7.05;;;13.90;99.90;;;;;;4892070;29;20481;-78
2021/09/21 03:21:05;;;;;;;8.95;6.55;;;13.90;99.90;;;;;;4897663;29;20083;-78
2021/09/21 03:23:33;;;;;;;10.00;6.88;;;13.90;99.90;;;;;;4897783;29;20486;-78
2021/09/21 03:26:00;;;;;;;9.63;7.10;;;13.90;99.90;;;;;;4897632;29;20135;-78
2021/09/21 03:28:28;;;;;;;10.00;7.40;;;13.90;99.90;;;;;;4890513;29;20076;-78
2021/09/21 03:30:55;;;;;;;10.65;7.50;;;13.90;99.90;;;;;;4897760;29;20140;-79
2021/09/21 03:33:22;;;;;;;10.15;7.18;;;13.80;99.90;;;;;;4897512;29;20055;-78
2021/09/21 03:35:49;;;;;;;12.18;7.13;;;13.80;99.90;;;;;;4897754;29;20099;-78
2021/09/21 03:38:17;;;;;;;10.77;7.43;;;13.80;99.90;;;;;;4897243;29;20507;-80
2021/09/21 03:40:46;;;;;;;10.52;7.22;;;13.80;99.90;;;;;;4897403;29;20430;-78
2021/09/21 03:43:13;;;;;;;12.10;7.47;;;13.80;99.90;;;;;;4897210;29;20052;-78
2021/09/21 03:45:40;;;;;;;10.75;7.50;;;13.80;99.90;;;;;;4897368;29;20135;-78
2021/09/21 03:48:08;;;;;;;11.25;7.72;;;13.80;99.90;;;;;;4897190;29;20048;-80
2021/09/21 03:50:36;;;;;;;11.27;8.05;;;13.90;99.90;;;;;;4896922;29;20055;-80
2021/09/21 03:53:03;;;;;;;12.25;7.60;;;13.80;99.90;;;;;;4897063;29;20062;-78
2021/09/21 03:55:31;;;;;;;11.07;7.50;;;13.80;99.90;;;;;;4890592;29;20105;-79
2021/09/21 03:57:59;;;;;;;10.70;7.78;;;13.80;99.90;;;;;;4897275;29;20063;-79
2021/09/21 04:00:27;;;;;;;10.68;7.28;;;13.80;99.90;;;;;;4897051;29;20041;-79
2021/09/21 04:02:54;;;;;;;12.13;7.70;;;13.70;99.90;;;;;;4900135;29;20055;-80
2021/09/21 04:05:21;;;;;;;12.07;8.07;;;13.80;99.90;;;;;;4889861;29;20082;-79
2021/09/21 04:07:50;;;;;;;9.85;7.32;;;13.70;99.90;;;;;;4886412;29;20567;-78
2021/09/21 04:10:18;;;;;;;12.82;7.60;;;13.70;99.90;;;;;;4899233;29;20052;-80
2021/09/21 04:12:45;;;;;;;11.38;7.60;;;13.70;99.90;;;;;;4900413;29;20152;-77
2021/09/21 04:15:14;;;;;;;12.35;8.40;;;13.70;99.90;;;;;;4900131;29;20155;-78
2021/09/21 04:17:42;;;;;;;11.57;7.60;;;13.70;99.90;;;;;;4900132;29;20136;-78
2021/09/21 04:20:10;;;;;;;11.02;8.00;;;13.80;99.90;;;;;;4900214;29;20081;-78
2021/09/21 04:22:39;;;;;;;10.40;7.35;;;13.70;99.90;;;;;;4894405;29;20079;-77
2021/09/21 04:25:08;;;;;;;10.82;7.93;;;13.60;99.90;;;;;;4900058;29;20070;-80
2021/09/21 04:27:35;;;;;;;10.45;7.65;;;13.70;99.90;;;;;;4900043;29;20119;-77
2021/09/21 04:30:03;;;;;;;11.70;8.00;;;13.70;99.90;;;;;;4900035;29;20483;-78
2021/09/21 04:32:32;;;;;;;12.52;7.57;;;13.70;99.90;;;;;;4893194;29;20459;-79
2021/09/21 04:35:00;;;;;;;11.85;7.82;;;13.80;99.90;;;;;;4900027;29;20084;-78
2021/09/21 04:37:28;;;;;;;10.80;7.38;;;13.70;99.90;;;;;;4899959;29;20127;-78
2021/09/21 04:39:55;;;;;;;11.20;8.02;;;13.80;99.90;;;;;;4899826;29;20100;-79
2021/09/21 04:42:25;;;;;;;12.40;8.15;;;13.80;99.90;;;;;;4899513;29;20045;-78
2021/09/21 04:44:52;;;;;;;10.05;7.93;;;13.70;99.90;;;;;;4899728;29;20416;-78
2021/09/21 04:47:19;;;;;;;10.38;7.95;;;13.80;99.90;;;;;;4899747;29;20135;-78
2021/09/21 04:49:48;;;;;;;10.48;7.88;;;13.70;99.90;;;;;;4899536;29;20135;-79
2021/09/21 04:52:15;;;;;;;10.52;7.22;;;13.70;99.90;;;;;;4899183;29;20080;-78
2021/09/21 04:54:43;;;;;;;11.25;7.30;;;13.70;99.90;;;;;;4899531;29;20051;-78
2021/09/21 04:57:10;;;;;;;11.98;8.00;;;13.70;99.90;;;;;;4900655;29;20079;-79
2021/09/21 04:59:37;;;;;;;10.93;7.85;;;13.80;99.90;;;;;;4899499;29;20048;-79
2021/09/21 05:02:04;;;;;;;11.05;7.93;;;13.80;99.90;;;;;;4899463;29;20075;-77
2021/09/21 05:04:31;;;;;;;10.13;7.57;;;13.80;99.90;;;;;;4899222;29;20123;-80
2021/09/21 05:07:00;;;;;;;13.73;7.80;;;13.90;99.90;;;;;;4899304;29;20506;-79
2021/09/21 05:09:27;;;;;;;11.57;7.93;;;13.80;99.90;;;;;;4899319;29;20127;-80
2021/09/21 05:11:54;;;;;;;9.20;7.03;;;13.90;99.90;;;;;;4899177;29;20049;-80
2021/09/21 05:14:21;;;;;;;11.05;7.50;;;13.80;99.90;;;;;;4898981;29;20132;-81
2021/09/21 05:16:48;;;;;;;10.73;7.82;;;13.80;99.90;;;;;;4898812;29;20155;-80
2021/09/21 05:19:15;;;;;;;11.68;7.85;;;13.80;99.90;;;;;;4898879;29;20574;-80
2021/09/21 05:21:45;;;;;;;10.68;7.97;;;13.80;99.90;;;;;;4891757;29;20087;-80
2021/09/21 05:24:14;;;;;;;11.75;7.90;;;13.80;99.90;;;;;;4884713;29;20097;-80
2021/09/21 05:26:41;;;;;;;10.57;7.82;;;13.80;99.90;;;;;;4883234;29;20212;-77
2021/09/21 05:29:08;;;;;;;10.07;7.50;;;13.80;99.90;;;;;;4881828;29;20087;-78
2021/09/21 05:31:35;;;;;;;10.70;7.55;;;13.90;99.90;;;;;;4883156;29;20051;-79
2021/09/21 05:34:03;;;;;;;10.02;7.57;;;13.90;99.90;;;;;;4881666;29;20059;-80
2021/09/21 05:36:31;;;;;;;11.15;7.88;;;13.80;99.90;;;;;;4892197;29;20128;-80
2021/09/21 05:38:58;;;;;;;11.65;7.88;;;13.80;99.90;;;;;;4888349;29;20463;-78
2021/09/21 05:41:27;;;;;;;11.90;8.25;;;13.80;99.90;;;;;;4881971;29;20128;-80
2021/09/21 05:43:54;;;;;;;11.23;7.70;;;13.90;99.90;;;;;;4880961;29;20479;-80
2021/09/21 05:46:21;;;;;;;11.27;7.85;;;13.90;99.90;;;;;;4887208;29;20474;-80
2021/09/21 05:48:49;;;;;;;11.18;7.57;;;13.90;99.90;;;;;;4885009;29;20152;-78
2021/09/21 05:51:17;;;;;;;10.48;7.18;;;13.90;99.90;;;;;;4882239;29;20122;-80
2021/09/21 05:53:44;;;;;;;11.57;8.20;;;13.90;99.90;;;;;;4879726;29;20475;-79
2021/09/21 05:56:11;;;;;;;10.95;7.25;;;13.90;99.90;;;;;;4888387;29;20083;-80
2021/09/21 05:58:40;;;;;;;12.48;7.63;;;13.90;99.90;;;;;;4898197;29;20123;-80
2021/09/21 06:01:07;;;;;;;11.23;7.60;;;13.90;99.90;;;;;;4898079;29;20111;-79
2021/09/21 06:03:35;;;;;;;11.13;7.80;;;13.90;99.90;;;;;;4892610;29;20140;-79
2021/09/21 06:06:02;;;;;;;11.85;8.00;;;14.00;99.90;;;;;;4889470;29;20055;-77
2021/09/21 06:08:29;;;;;;;14.00;8.30;;;14.00;99.90;;;;;;4883834;29;20045;-79
2021/09/21 06:10:56;;;;;;;11.65;7.75;;;14.00;99.90;;;;;;4880551;29;20136;-79
2021/09/21 06:13:24;;;;;;;11.73;8.05;;;14.00;99.90;;;;;;4888527;29;20573;-80
2021/09/21 06:15:52;;;;;;;10.35;7.65;;;14.00;99.90;;;;;;4883652;29;20148;-80
2021/09/21 06:18:20;;;;;;;10.55;7.53;;;14.00;99.90;;;;;;4882571;29;20157;-81
2021/09/21 06:20:47;;;;;;;10.63;7.55;;;13.90;99.90;;;;;;4888663;29;20147;-79
2021/09/21 06:23:15;;;;;;;11.23;7.82;;;13.90;99.90;;;;;;4882223;29;20055;-81
2021/09/21 06:25:42;;;;;;;11.18;7.78;;;14.00;99.90;;;;;;4886852;29;20140;-79
2021/09/21 06:28:09;;;;;;;10.43;7.38;;;13.90;99.90;;;;;;4879557;29;20055;-80
2021/09/21 06:30:36;;;;;;;11.20;7.43;;;14.00;99.90;;;;;;4892570;29;20144;-80
2021/09/21 06:33:05;;;;;;;9.38;7.40;;;13.90;99.90;;;;;;4884849;29;20570;-80
2021/09/21 06:35:32;;;;;;;9.63;6.97;;;13.90;99.90;;;;;;4888520;29;20045;-80
2021/09/21 06:37:59;;;;;;;8.85;6.72;;;13.90;99.90;;;;;;4892282;29;20143;-80
2021/09/21 06:40:27;;;;;;;10.00;7.43;;;13.90;99.90;;;;;;4897685;29;20135;-80
2021/09/21 06:42:54;;;;;;;11.70;8.57;;;13.90;99.90;;;;;;4899425;29;20049;-80
2021/09/21 06:45:21;;;;;;;9.88;7.40;;;14.00;99.90;;;;;;4898262;29;20136;-79
2021/09/21 06:47:48;;;;;;;12.82;7.65;;;13.90;99.90;;;;;;4897478;29;20063;-80
2021/09/21 06:50:17;;;;;;;11.43;7.72;;;14.00;99.90;;;;;;4894288;29;20049;-80
2021/09/21 06:52:45;;;;;;;10.13;7.70;;;13.90;99.90;;;;;;4897266;29;20507;-80
2021/09/21 06:55:13;;;;;;;12.40;8.20;;;13.90;99.90;;;;;;4894603;29;20088;-79
2021/09/21 06:57:41;;;;;;;10.40;7.60;;;14.00;99.90;;;;;;4884295;29;20057;-79
2021/09/21 07:00:11;;;;;;;12.13;8.10;;;14.00;99.90;;;;;;4886336;29;20059;-80
2021/09/21 07:02:39;;;;;;;10.73;7.55;;;14.10;99.90;;;;;;4887030;29;20048;-80
2021/09/21 07:05:07;;;;;;;11.50;7.93;;;14.10;99.90;;;;;;4889322;29;20137;-78
2021/09/21 07:07:36;;;;;;;11.73;7.70;;;14.00;99.90;;;;;;4895890;29;20044;-80
2021/09/21 07:10:05;;;;;;;14.38;9.02;;;14.00;99.90;;;;;;4886760;29;20475;-77
2021/09/21 07:12:32;;;;;;;12.30;8.48;;;14.10;99.90;;;;;;4879640;29;20562;-78
2021/09/21 07:15:00;;;;;;;12.18;8.43;;;14.10;99.90;;;;;;4879517;29;20053;-77
2021/09/21 07:17:27;;;;;;;12.32;7.82;;;14.10;99.90;;;;;;4886410;29;20491;-77
2021/09/21 07:19:55;;;;;;;10.27;7.95;;;14.10;99.90;;;;;;4879679;29;20060;-78
2021/09/21 07:22:23;;;;;;;10.18;7.07;;;14.10;99.90;;;;;;4882269;29;20048;-77
2021/09/21 07:24:52;;;;;;;9.13;6.70;;;14.10;99.90;;;;;;4892620;29;20463;-78
2021/09/21 07:27:20;;;;;;;8.52;6.65;;;14.20;99.90;;;;;;4883319;29;20411;-79
2021/09/21 07:29:47;;;;;;;9.55;6.47;;;14.20;99.90;;;;;;4878961;29;20081;-77
2021/09/21 07:32:15;;;;;;;10.63;7.70;;;14.20;99.90;;;;;;4891905;29;20139;-77
2021/09/21 07:34:43;;;;;;;10.32;7.82;;;14.20;99.90;;;;;;4879713;29;20139;-77
2021/09/21 07:37:12;;;;;;;8.95;6.60;;;14.30;99.90;;;;;;4887478;29;20112;-79
2021/09/21 07:39:39;;;;;;;8.73;6.10;;;14.30;99.60;;;;;;4886157;29;20053;-81
2021/09/21 07:42:08;;;;;;;7.93;5.60;;;14.30;99.40;;;;;;4883972;29;20057;-80
2021/09/21 07:44:35;;;;;;;8.63;5.93;;;14.30;99.40;;;;;;4890439;29;20057;-80
2021/09/21 07:47:03;;;;;;;8.30;6.03;;;14.40;99.20;;;;;;4886952;29;20060;-80
2021/09/21 07:49:30;;;;;;;9.20;6.13;;;14.30;98.70;;;;;;4888002;29;20455;-80
2021/09/21 07:51:57;;;;;;;8.38;6.32;;;14.40;98.30;;;;;;4891985;29;20147;-79
2021/09/21 07:54:24;;;;;;;7.40;5.70;;;14.40;97.50;;;;;;4896149;29;20133;-80
2021/09/21 07:56:51;;;;;;;7.63;5.40;;;14.30;97.30;;;;;;4895651;29;20131;-80
2021/09/21 07:59:19;;;;;;;8.13;6.22;;;14.40;97.10;;;;;;4896447;29;20488;-80
2021/09/21 08:01:47;;;;;;;9.27;5.43;;;14.40;97.00;;;;;;4898959;29;20053;-80
2021/09/21 08:04:14;;;;;;;7.72;5.55;;;14.40;96.90;;;;;;4900194;29;20140;-80
2021/09/21 08:06:41;;;;;;;8.93;6.13;;;14.40;97.70;;;;;;4900397;29;20048;-81
2021/09/21 08:09:08;;;;;;;8.40;6.10;;;14.50;98.30;;;;;;4899652;29;20132;-80
2021/09/21 08:11:35;;;;;;;8.23;6.00;;;14.60;99.90;;;;;;4900487;29;20127;-80
2021/09/21 08:14:04;;;;;;;9.15;6.05;;;14.60;99.90;;;;;;4899139;29;20052;-80
2021/09/21 08:16:34;;;;;;;7.68;5.60;;;;;;;;;;4889007;29;20058;-79
2021/09/21 08:19:01;;;;;;;8.32;5.88;;;;;;;;;;4884065;29;20494;-78
2021/09/21 08:21:28;;;;;;;9.23;5.50;;;14.60;94.90;;;;;;4882190;29;20072;-78
2021/09/21 08:23:56;;;;;;;9.02;5.53;;;14.60;95.20;;;;;;4883354;29;20550;-78
2021/09/21 08:26:23;;;;;;;8.80;6.00;;;14.60;95.30;;;;;;4896040;29;20145;-77
2021/09/21 08:28:51;;;;;;;9.77;6.40;;;14.70;95.10;;;;;;4895537;29;20094;-80
2021/09/21 08:31:18;;;;;;;10.23;5.80;;;14.70;94.70;;;;;;4898420;29;20124;-79
2021/09/21 08:33:46;;;;;;;8.20;5.25;;;14.70;94.70;;;;;;4900215;29;20567;-80
2021/09/21 08:36:13;;;;;;;6.57;5.07;;;14.80;94.70;;;;;;4900371;29;20492;-79
2021/09/21 08:38:40;;;;;;;7.40;5.20;;;14.80;94.50;;;;;;4900171;29;20139;-79
2021/09/21 08:41:07;;;;;;;7.32;5.18;;;14.90;94.00;;;;;;4899352;29;20147;-78
2021/09/21 08:43:34;;;;;;;7.18;5.03;;;14.90;93.20;;;;;;4900568;29;20072;-80
2021/09/21 08:46:01;;;;;;;7.22;4.60;;;14.90;93.10;;;;;;4898923;29;20131;-79
2021/09/21 08:48:29;;;;;;;6.60;4.70;;;15.00;93.10;;;;;;4900150;29;20229;-79
2021/09/21 08:50:57;;;;;;;6.57;4.85;;;15.00;92.50;;;;;;4900129;29;20566;-76
2021/09/21 08:53:24;;;;;;;6.45;4.80;;;15.10;91.80;;;;;;4899381;29;20152;-79
2021/09/21 08:55:52;;;;;;;6.10;4.40;;;15.10;90.90;;;;;;4899886;29;20144;-79
2021/09/21 08:58:25;;;;;;;6.20;4.35;;;15.10;90.50;;;;;;4899780;29;20061;-78
2021/09/21 09:00:52;;;;;;;6.00;4.10;;;15.10;90.50;;;;;;4899955;29;20059;-79
2021/09/21 09:03:20;;;;;;;6.93;4.38;;;15.10;90.80;;;;;;4899181;29;20091;-80
2021/09/21 09:05:50;;;;;;;6.65;4.47;;;15.20;91.00;;;;;;4899965;29;20076;-78
2021/09/21 09:08:30;;;;;;;7.07;4.90;;;15.20;91.20;;;;;;4899602;29;20080;-78
2021/09/21 09:11:11;;;;;;;7.03;4.28;;;15.30;91.00;;;;;;4899029;29;20052;-78
2021/09/21 09:13:38;;;;;;;7.15;4.75;;;15.30;90.80;;;;;;4891942;29;20127;-79
2021/09/21 09:16:11;;;;;;;7.20;4.32;;;15.40;90.90;;;;;;4899074;29;20131;-77
2021/09/21 09:18:39;;;;;;;6.97;4.75;;;15.40;90.80;;;;;;4899359;29;20124;-78
2021/09/21 09:21:06;;;;;;;7.82;4.72;;;15.40;90.50;;;;;;4899972;29;20063;-79
2021/09/21 09:23:34;;;;;;;6.82;4.55;;;15.50;90.20;;;;;;4900153;29;20139;-80
2021/09/21 09:26:01;;;;;;;5.82;4.00;;;15.50;90.20;;;;;;4899533;29;20566;-77
2021/09/21 09:28:29;;;;;;;6.30;4.30;;;15.60;90.20;;;;;;4899448;29;20494;-79
2021/09/21 09:30:58;;;;;;;6.47;4.40;;;15.70;90.20;;;;;;4900173;29;20056;-79
2021/09/21 09:33:25;;;;;;;6.57;4.60;;;15.80;90.10;;;;;;4900163;29;20470;-79
2021/09/21 09:35:53;;;;;;;6.10;4.40;;;15.80;89.20;;;;;;4900036;29;20064;-77
2021/09/21 09:38:23;;;;;;;6.55;4.47;;;15.90;88.80;;;;;;4899960;29;20045;-77
2021/09/21 09:40:55;;;;;;;6.47;4.93;;;16.00;88.60;;;;;;4905349;29;20055;-76
2021/09/21 09:43:25;;;;;;;6.25;4.43;;;16.10;87.70;;;;;;4903776;29;20510;-75
2021/09/21 09:45:55;;;;;;;6.88;4.10;;;16.10;87.70;;;;;;4901539;29;20045;-79
2021/09/21 09:48:24;;;;;;;7.78;4.40;;;16.20;88.10;;;;;;4901087;29;20140;-75
2021/09/21 09:50:55;;;;;;;6.05;4.25;;;16.30;89.20;;;;;;4900070;29;20099;-78
2021/09/21 09:53:25;;;;;;;7.63;4.28;;;16.40;88.30;;;;;;4899582;29;20125;-78
2021/09/21 09:55:55;;;;;;;7.03;4.20;;;16.40;88.00;;;;;;4899137;29;20060;-78
2021/09/21 09:58:24;;;;;;;7.30;4.22;;;16.50;87.30;;;;;;4898965;29;20253;-78
2021/09/21 10:00:54;;;;;;;6.22;4.32;;;16.60;87.60;;;;;;4898692;29;20139;-81
2021/09/21 10:03:22;;;;;;;7.28;4.40;;;16.70;87.40;;;;;;4903206;29;20410;-80
2021/09/21 10:05:51;;;;;;;6.18;4.40;;;16.80;87.30;;;;;;4900118;29;20059;-80
2021/09/21 10:08:18;;;;;;;6.88;4.35;;;16.90;87.30;;;;;;4905652;29;20487;-77
2021/09/21 10:10:47;;;;;;;5.80;4.50;;;17.00;86.70;;;;;;4897191;29;20530;-76
2021/09/21 10:13:17;;;;;;;5.32;3.80;;;17.00;84.40;;;;;;4895520;29;20100;-78
2021/09/21 10:15:45;;;;;;;6.95;4.20;;;17.10;84.50;;;;;;4894080;29;20143;-77
2021/09/21 10:18:18;;;;;;;5.25;3.85;;;17.10;84.30;;;;;;4895800;29;20052;-77
2021/09/21 10:20:57;;;;;;;5.40;3.70;;;17.10;84.00;;;;;;4895710;29;20550;-75
2021/09/21 10:23:33;;;;;;;6.15;3.78;;;17.10;84.30;;;;;;4896170;29;20134;-76
2021/09/21 10:26:17;;;;;;;6.53;3.83;;;17.10;84.40;;;;;;4896135;29;20056;-76
2021/09/21 10:28:47;;;;;;;6.03;4.25;;;17.20;84.10;;;;;;4892193;29;20127;-80
2021/09/21 10:31:17;;;;;;;5.22;3.80;;;17.20;83.50;;;;;;4890609;29;20076;-79
2021/09/21 10:33:44;;;;;;;4.90;3.55;;;17.20;83.20;;;;;;4895978;29;20392;-76
2021/09/21 10:36:19;;;;;;;6.47;4.15;;;17.20;83.80;;;;;;4894315;29;20115;-75
2021/09/21 10:38:55;;;;;;;7.43;4.38;;;17.30;84.40;;;;;;4895633;29;20131;-79
2021/09/21 10:41:23;;;;;;;5.72;4.00;;;17.30;84.00;;;;;;4895453;29;20084;-77
2021/09/21 10:44:05;;;;;;;5.75;4.07;;;17.30;83.70;;;;;;4895688;29;20132;-75
2021/09/21 10:46:48;;;;;;;5.45;3.75;;;17.40;83.80;;;;;;4892578;29;20059;-78
2021/09/21 10:49:29;;;;;;;6.70;4.47;;;17.50;83.40;;;;;;4895349;29;20052;-78
2021/09/21 10:52:00;;;;;;;7.60;3.97;;;17.50;82.60;;;;;;4896004;29;20103;-73
2021/09/21 10:54:32;;;;;;;6.35;4.13;;;17.60;81.90;;;;;;4895751;29;20055;-79
2021/09/21 10:57:13;;;;;;;7.20;4.10;;;17.70;81.30;;;;;;4897157;29;20190;-78
2021/09/21 10:59:53;;;;;;;6.15;3.80;;;17.80;82.00;;;;;;4891965;29;20056;-76
2021/09/21 11:02:24;;;;;;;4.88;3.63;;;17.90;81.50;;;;;;4896966;29;20092;-79
2021/09/21 11:04:51;;;;;;;6.47;4.03;;;18.00;81.60;;;;;;4897532;29;20044;-78
2021/09/21 11:07:18;;;;;;;7.38;4.20;;;18.10;80.40;;;;;;4892405;29;20687;-80
2021/09/21 11:09:51;;;;;;;5.80;3.83;;;18.20;80.20;;;;;;4898252;29;20129;-79
2021/09/21 11:12:22;;;;;;;6.30;4.32;;;18.20;80.00;;;;;;4898393;29;20499;-79
2021/09/21 11:14:54;;;;;;;5.97;4.03;;;18.30;78.50;;;;;;4898387;29;20517;-79
2021/09/21 11:17:24;;;;;;;5.28;3.70;;;18.30;77.30;;;;;;4898360;29;20546;-78
2021/09/21 11:19:53;;;;;;;5.32;4.15;;;18.30;79.30;;;;;;4896887;29;20436;-79
2021/09/21 11:22:26;;;;;;;6.10;3.97;;;18.40;78.40;;;;;;4897033;29;20053;-79
2021/09/21 11:25:01;;;;;;;6.03;4.07;;;18.50;76.90;;;;;;4897847;29;20131;-79
2021/09/21 11:27:28;;;;;;;5.75;3.90;;;18.50;76.50;;;;;;4897749;29;20567;-80
2021/09/21 11:30:07;;;;;;;5.28;3.70;;;18.50;75.90;;;;;;4898841;29;20079;-78
2021/09/21 11:32:35;;;;;;;5.72;3.80;;;18.60;76.10;;;;;;4894378;29;20081;-79
2021/09/21 11:35:06;;;;;;;4.90;3.47;;;18.60;76.50;;;;;;4897065;29;20131;-80
2021/09/21 11:37:33;;;;;;;4.80;3.58;;;18.70;77.00;;;;;;4894634;29;20071;-78
2021/09/21 11:40:01;;;;;;;5.68;4.05;;;18.80;77.40;;;;;;4901363;29;20136;-80
2021/09/21 11:42:31;;;;;;;5.03;3.75;;;19.00;76.80;;;;;;4894456;29;20139;-80
2021/09/21 11:45:01;;;;;;;5.55;3.78;;;19.10;75.80;;;;;;4902498;29;20052;-78
2021/09/21 11:47:37;;;;;;;5.30;3.75;;;19.10;74.60;;;;;;4893004;29;20088;-80
2021/09/21 11:50:11;;;;;;;5.68;3.85;;;19.10;74.90;;;;;;4900804;29;20526;-81
2021/09/21 11:52:39;;;;;;;5.97;3.75;;;19.10;73.90;;;;;;4901868;29;20455;-78
2021/09/21 11:55:12;;;;;;;5.65;4.28;;;19.00;73.00;;;;;;4901769;29;20558;-78
2021/09/21 11:57:39;;;;;;;5.72;3.90;;;18.90;72.40;;;;;;4901624;29;20419;-79
2021/09/21 12:00:22;;;;;;;5.47;3.90;;;18.80;72.80;;;;;;4901142;29;20096;-78
2021/09/21 12:02:54;;;;;;;4.53;3.35;;;18.70;72.10;;;;;;4900820;29;20476;-78
2021/09/21 12:05:21;;;;;;;5.38;3.50;;;18.60;72.60;;;;;;4888116;29;20131;-78
2021/09/21 12:07:49;;;;;;;5.50;3.92;;;18.60;73.00;;;;;;4900548;29;20135;-78
2021/09/21 12:10:18;;;;;;;5.03;3.60;;;18.50;72.50;;;;;;4900629;29;20055;-79
2021/09/21 12:12:45;;;;;;;5.97;3.90;;;18.50;73.30;;;;;;4900766;29;20155;-78
2021/09/21 12:15:14;;;;;;;5.05;3.72;;;18.50;73.00;;;;;;4898262;29;20059;-76
2021/09/21 12:17:45;;;;;;;6.10;4.00;;;18.60;73.20;;;;;;4897571;29;20400;-80
2021/09/21 12:20:13;;;;;;;5.97;4.00;;;18.50;72.50;;;;;;4898223;29;20052;-79
2021/09/21 12:22:51;;;;;;;4.93;3.67;;;18.50;73.20;;;;;;4897700;29;20131;-78
2021/09/21 12:25:20;;;;;;;5.95;4.38;;;18.60;73.20;;;;;;4897467;29;20044;-78
2021/09/21 12:27:53;;;;;;;5.32;3.90;;;18.60;72.80;;;;;;4898053;29;20055;-79
2021/09/21 12:30:24;;;;;;;4.95;3.83;;;18.70;72.70;;;;;;4898124;29;20511;-77
2021/09/21 12:33:00;;;;;;;6.63;4.28;;;18.80;72.90;;;;;;4897178;29;20145;-78
2021/09/21 12:35:31;;;;;;;6.38;4.45;;;19.00;72.10;;;;;;4897811;29;20135;-80
2021/09/21 12:38:05;;;;;;;5.68;3.97;;;19.10;70.40;;;;;;4899079;29;20080;-79
2021/09/21 12:40:33;;;;;;;6.38;3.78;;;19.20;70.30;;;;;;4897160;29;20124;-78
2021/09/21 12:43:04;;;;;;;5.03;3.40;;;19.40;70.60;;;;;;4896145;29;20143;-78
2021/09/21 12:45:33;;;;;;;5.30;3.90;;;19.60;71.10;;;;;;4897545;29;20056;-79
2021/09/21 12:48:03;;;;;;;5.70;3.78;;;19.80;70.60;;;;;;4897837;29;20477;-79
2021/09/21 12:50:31;;;;;;;5.45;3.88;;;19.90;70.00;;;;;;4890525;29;20045;-79
2021/09/21 12:53:00;;;;;;;6.10;4.30;;;20.00;69.50;;;;;;4897270;29;20056;-76
2021/09/21 12:55:38;;;;;;;5.22;3.90;;;20.20;69.00;;;;;;4897040;29;20056;-79
2021/09/21 12:58:06;;;;;;;5.30;3.55;;;20.30;66.90;;;;;;4895611;29;20048;-78
2021/09/21 13:00:38;;;;;;;5.40;4.10;;;20.50;67.20;;;;;;4895933;29;20143;-76